createdAt,value
2023-03-06T00:02:11.325Z,3.08
2023-03-06T00:04:38.449Z,2.65
2023-03-06T00:07:05.673Z,2.72
2023-03-06T00:09:32.868Z,2.40
2023-03-06T00:11:59.952Z,2.63
2023-03-06T00:14:27.123Z,2.88
2023-03-06T00:16:57.240Z,3.30
2023-03-06T00:19:24.633Z,2.75
2023-03-06T00:21:51.794Z,3.08
2023-03-06T00:24:18.921Z,3.38
2023-03-06T00:26:46.104Z,2.95
2023-03-06T00:29:13.279Z,3.38
2023-03-06T00:31:40.458Z,3.17
2023-03-06T00:34:07.661Z,3.42
2023-03-06T00:36:34.774Z,2.50
2023-03-06T00:39:01.933Z,3.13
2023-03-06T00:41:29.048Z,3.15
2023-03-06T00:43:58.170Z,2.90
2023-03-06T00:46:25.389Z,2.40
2023-03-06T00:48:52.547Z,2.78
2023-03-06T00:51:21.712Z,2.88
2023-03-06T00:53:48.948Z,2.30
2023-03-06T00:56:17.086Z,2.20
2023-03-06T00:58:45.550Z,3.35
2023-03-06T01:01:12.707Z,2.35
2023-03-06T01:03:39.884Z,2.63
2023-03-06T01:06:07.232Z,2.90
2023-03-06T01:08:37.075Z,2.53
2023-03-06T01:11:04.217Z,2.70
2023-03-06T01:13:31.326Z,2.65
2023-03-06T01:16:06.513Z,2.80
2023-03-06T01:18:33.635Z,3.33
2023-03-06T01:21:02.000Z,3.10
2023-03-06T01:23:29.427Z,3.28
2023-03-06T01:25:57.008Z,3.42
2023-03-06T01:28:24.498Z,3.95
2023-03-06T01:30:51.670Z,3.33
2023-03-06T01:33:18.830Z,4.28
2023-03-06T01:35:46.111Z,3.65
2023-03-06T01:38:13.846Z,3.78
2023-03-06T01:40:41.157Z,4.22
2023-03-06T01:43:11.475Z,4.35
2023-03-06T01:45:38.567Z,4.43
2023-03-06T01:48:05.699Z,4.97
2023-03-06T01:50:32.835Z,4.15
2023-03-06T01:53:00.413Z,4.55
2023-03-06T01:55:33.517Z,4.72
2023-03-06T01:58:02.028Z,4.90
2023-03-06T02:00:30.052Z,5.18
2023-03-06T02:03:09.068Z,5.38
2023-03-06T02:05:38.459Z,5.30
2023-03-06T02:08:06.545Z,4.72
2023-03-06T02:10:33.774Z,4.90
2023-03-06T02:13:01.218Z,4.75
2023-03-06T02:15:29.439Z,5.28
2023-03-06T02:17:56.683Z,5.68
2023-03-06T02:20:23.836Z,4.68
2023-03-06T02:23:11.943Z,5.40
2023-03-06T02:25:41.689Z,4.72
2023-03-06T02:28:10.799Z,4.90
2023-03-06T02:30:40.128Z,5.63
2023-03-06T02:33:07.550Z,5.57
2023-03-06T02:35:35.806Z,4.93
2023-03-06T02:38:11.447Z,5.22
2023-03-06T02:40:39.642Z,6.25
2023-03-06T02:43:08.077Z,5.82
2023-03-06T02:45:40.022Z,6.10
2023-03-06T02:48:07.893Z,6.22
2023-03-06T02:50:35.018Z,6.15
2023-03-06T02:53:02.311Z,5.50
2023-03-06T02:55:31.171Z,6.25
2023-03-06T02:57:58.434Z,5.60
2023-03-06T03:00:26.087Z,5.70
2023-03-06T03:02:54.590Z,6.80
2023-03-06T03:05:21.854Z,6.15
2023-03-06T03:07:56.130Z,5.40
2023-03-06T03:10:23.626Z,5.75
2023-03-06T03:12:51.579Z,5.78
2023-03-06T03:15:20.653Z,6.50
2023-03-06T03:17:47.876Z,6.28
2023-03-06T03:20:16.428Z,6.43
2023-03-06T03:22:43.827Z,7.85
2023-03-06T03:25:11.602Z,6.90
2023-03-06T03:27:38.867Z,6.20
2023-03-06T03:30:06.982Z,6.25
2023-03-06T03:32:35.350Z,6.50
2023-03-06T03:35:03.195Z,6.85
2023-03-06T03:37:30.564Z,6.80
2023-03-06T03:39:59.473Z,6.18
2023-03-06T03:42:26.812Z,7.05
2023-03-06T03:44:54.795Z,6.70
2023-03-06T03:47:22.696Z,5.78
2023-03-06T03:49:51.040Z,6.35
2023-03-06T03:52:20.383Z,6.18
2023-03-06T03:54:47.538Z,6.88
2023-03-06T03:57:14.730Z,7.55
2023-03-06T03:59:47.626Z,7.03
2023-03-06T04:02:40.929Z,7.00
2023-03-06T04:05:19.275Z,6.38
2023-03-06T04:07:49.066Z,6.68
2023-03-06T04:10:16.873Z,6.57
2023-03-06T04:12:44.800Z,5.93
2023-03-06T04:15:12.725Z,7.18
2023-03-06T04:17:40.614Z,6.50
2023-03-06T04:20:12.734Z,6.68
2023-03-06T04:22:40.018Z,7.30
2023-03-06T04:25:07.886Z,5.82
2023-03-06T04:27:37.333Z,6.90
2023-03-06T04:30:05.823Z,6.53
2023-03-06T04:32:35.084Z,7.13
2023-03-06T04:35:02.594Z,6.32
2023-03-06T04:37:35.461Z,7.55
2023-03-06T04:40:03.008Z,7.55
2023-03-06T04:42:30.518Z,7.60
2023-03-06T04:44:57.603Z,7.13
2023-03-06T04:47:24.770Z,8.07
2023-03-06T04:49:52.007Z,7.65
2023-03-06T04:52:19.117Z,7.68
2023-03-06T04:54:48.591Z,8.00
2023-03-06T04:57:16.010Z,7.65
2023-03-06T04:59:43.134Z,8.02
2023-03-06T05:02:10.332Z,7.85
2023-03-06T05:04:37.723Z,8.07
2023-03-06T05:07:04.889Z,8.52
2023-03-06T05:09:32.076Z,7.88
2023-03-06T05:11:59.489Z,7.88
2023-03-06T05:14:26.634Z,8.38
2023-03-06T05:16:53.743Z,8.32
2023-03-06T05:19:21.214Z,9.95
2023-03-06T05:21:48.488Z,8.38
2023-03-06T05:24:15.560Z,8.32
2023-03-06T05:26:42.797Z,9.45
2023-03-06T05:29:09.957Z,9.30
2023-03-06T05:31:37.204Z,8.77
2023-03-06T05:34:04.389Z,9.40
2023-03-06T05:36:32.291Z,9.10
2023-03-06T05:38:59.697Z,7.80
2023-03-06T05:41:27.223Z,5.90
2023-03-06T05:43:54.556Z,5.03
2023-03-06T05:46:21.958Z,4.65
2023-03-06T05:48:49.364Z,5.03
2023-03-06T05:51:16.468Z,4.00
2023-03-06T05:53:43.614Z,4.07
2023-03-06T05:56:10.832Z,3.30
2023-03-06T05:58:38.545Z,3.03
2023-03-06T06:01:10.127Z,4.00
2023-03-06T06:03:37.648Z,6.63
2023-03-06T06:06:05.790Z,7.63
2023-03-06T06:08:33.100Z,8.40
2023-03-06T06:11:00.725Z,7.38
2023-03-06T06:13:28.373Z,5.88
2023-03-06T06:15:55.665Z,4.07
2023-03-06T06:18:23.061Z,2.75
2023-03-06T06:20:50.378Z,1.67
2023-03-06T06:23:22.885Z,2.20
2023-03-06T06:25:51.395Z,1.70
2023-03-06T06:28:18.513Z,1.38
2023-03-06T06:30:45.749Z,1.83
2023-03-06T06:33:13.131Z,1.80
2023-03-06T06:35:40.552Z,1.67
2023-03-06T06:38:10.756Z,1.48
2023-03-06T06:40:37.898Z,1.42
2023-03-06T06:43:05.064Z,1.60
2023-03-06T06:45:32.218Z,1.60
2023-03-06T06:48:02.747Z,1.40
2023-03-06T06:50:33.110Z,1.35
2023-03-06T06:53:00.379Z,1.23
2023-03-06T06:55:29.850Z,1.20
2023-03-06T06:57:57.046Z,1.25
2023-03-06T07:00:50.398Z,1.38
2023-03-06T07:03:42.560Z,1.25
2023-03-06T07:06:09.719Z,1.40
2023-03-06T07:08:36.944Z,1.60
2023-03-06T07:11:08.804Z,1.27
2023-03-06T07:13:39.066Z,1.50
2023-03-06T07:16:08.008Z,1.52
2023-03-06T07:18:35.308Z,1.30
2023-03-06T07:21:02.779Z,1.33
2023-03-06T07:23:30.137Z,1.42
2023-03-06T07:25:57.601Z,1.65
2023-03-06T07:28:24.805Z,1.58
2023-03-06T07:30:52.041Z,1.13
2023-03-06T07:33:19.499Z,1.50
2023-03-06T07:35:46.963Z,1.70
2023-03-06T07:38:14.349Z,1.40
2023-03-06T07:40:41.929Z,1.42
2023-03-06T07:43:19.188Z,1.52
2023-03-06T07:45:59.510Z,1.10
2023-03-06T07:48:27.094Z,1.35
2023-03-06T07:50:58.105Z,1.30
2023-03-06T07:53:28.966Z,1.45
2023-03-06T07:55:56.541Z,1.25
2023-03-06T07:58:23.842Z,1.30
2023-03-06T08:00:51.013Z,1.40
2023-03-06T08:03:18.397Z,1.52
2023-03-06T08:05:45.990Z,1.23
2023-03-06T08:08:13.204Z,1.20
2023-03-06T08:10:40.366Z,1.35
2023-03-06T08:13:07.451Z,1.02
2023-03-06T08:15:34.698Z,1.30
2023-03-06T08:18:02.081Z,0.95
2023-03-06T08:20:29.236Z,0.98
2023-03-06T08:22:56.413Z,1.10
2023-03-06T08:25:24.768Z,1.15
2023-03-06T08:27:51.914Z,1.00
2023-03-06T08:30:19.666Z,1.27
2023-03-06T08:32:47.198Z,1.02
2023-03-06T08:35:14.964Z,1.30
2023-03-06T08:37:42.190Z,2.92
2023-03-06T08:40:09.819Z,6.95
2023-03-06T08:42:36.978Z,4.40
2023-03-06T08:45:04.273Z,1.60
2023-03-06T08:47:31.448Z,1.60
2023-03-06T08:50:00.581Z,2.70
2023-03-06T08:52:28.304Z,1.30
2023-03-06T08:54:55.486Z,1.23
2023-03-06T08:57:22.751Z,1.73
2023-03-06T08:59:49.966Z,1.15
2023-03-06T09:02:17.256Z,1.23
2023-03-06T09:04:44.355Z,1.10
2023-03-06T09:07:12.418Z,1.40
2023-03-06T09:09:39.666Z,1.25
2023-03-06T09:12:07.027Z,0.90
2023-03-06T09:14:34.196Z,1.80
2023-03-06T09:17:01.378Z,1.20
2023-03-06T09:19:28.552Z,1.30
2023-03-06T09:21:57.779Z,1.23
2023-03-06T09:24:27.908Z,1.00
2023-03-06T09:26:55.355Z,1.23
2023-03-06T09:29:22.490Z,1.33
2023-03-06T09:31:49.687Z,0.82
2023-03-06T09:34:17.075Z,1.10
2023-03-06T09:36:55.811Z,1.00
2023-03-06T09:39:24.653Z,0.90
2023-03-06T09:41:52.166Z,1.20
2023-03-06T09:44:20.693Z,1.02
2023-03-06T09:47:00.542Z,1.52
2023-03-06T09:49:46.522Z,1.20
2023-03-06T09:52:13.609Z,1.30
2023-03-06T09:54:44.127Z,1.10
2023-03-06T09:57:17.772Z,1.20
2023-03-06T09:59:48.297Z,1.02
2023-03-06T10:02:18.762Z,1.00
2023-03-06T10:04:49.883Z,18.27
2023-03-06T10:07:24.587Z,2.28
2023-03-06T10:09:54.512Z,1.15
2023-03-06T10:12:28.655Z,1.33
2023-03-06T10:15:15.081Z,1.27
2023-03-06T10:17:43.038Z,1.00
2023-03-06T10:20:22.281Z,0.95
2023-03-06T10:23:00.646Z,1.10
2023-03-06T10:25:37.678Z,1.10
2023-03-06T10:28:15.471Z,1.00
2023-03-06T10:30:45.727Z,0.80
2023-03-06T10:33:22.726Z,0.98
2023-03-06T10:35:54.811Z,0.90
2023-03-06T10:38:26.567Z,0.80
2023-03-06T10:41:08.733Z,1.10
2023-03-06T10:43:36.781Z,0.80
2023-03-06T10:46:05.092Z,0.80
2023-03-06T10:48:35.868Z,0.93
2023-03-06T10:51:19.861Z,0.90
2023-03-06T10:53:51.615Z,1.15
2023-03-06T10:56:30.578Z,0.50
2023-03-06T10:59:28.355Z,0.68
2023-03-06T11:01:59.410Z,0.68
2023-03-06T11:04:29.555Z,0.63
2023-03-06T11:07:07.504Z,0.73
2023-03-06T11:09:34.811Z,0.57
2023-03-06T11:12:19.680Z,0.73
2023-03-06T11:14:46.949Z,0.60
2023-03-06T11:17:33.851Z,1.20
2023-03-06T11:20:10.040Z,1.40
2023-03-06T11:22:39.202Z,0.90
2023-03-06T11:25:06.743Z,0.50
2023-03-06T11:27:34.807Z,0.90
2023-03-06T11:30:07.499Z,1.48
2023-03-06T11:32:43.795Z,0.73
2023-03-06T11:35:13.690Z,1.45
2023-03-06T11:37:48.305Z,0.80
2023-03-06T11:40:37.852Z,1.00
2023-03-06T11:43:17.146Z,0.60
2023-03-06T11:45:49.501Z,0.95
2023-03-06T11:48:17.659Z,0.70
2023-03-06T11:50:50.750Z,1.05
2023-03-06T11:53:28.853Z,1.00
2023-03-06T11:56:03.449Z,0.60
2023-03-06T11:58:49.371Z,0.70
2023-03-06T12:01:16.838Z,0.80
2023-03-06T12:03:59.313Z,1.13
2023-03-06T12:06:47.979Z,0.98
2023-03-06T12:09:15.096Z,1.40
2023-03-06T12:11:49.105Z,0.90
2023-03-06T12:14:33.951Z,0.90
2023-03-06T12:17:07.894Z,0.65
2023-03-06T12:19:44.837Z,0.80
2023-03-06T12:22:23.887Z,1.10
2023-03-06T12:25:02.806Z,0.98
2023-03-06T12:27:39.090Z,0.75
2023-03-06T12:30:16.272Z,0.60
2023-03-06T12:32:43.385Z,0.60
2023-03-06T12:35:16.930Z,0.88
2023-03-06T12:37:51.157Z,0.90
2023-03-06T12:40:32.806Z,0.57
2023-03-06T12:42:59.861Z,1.02
2023-03-06T12:45:37.141Z,0.90
2023-03-06T12:48:08.333Z,0.63
2023-03-06T12:50:39.924Z,1.00
2023-03-06T12:53:08.690Z,1.00
2023-03-06T12:55:46.019Z,0.85
2023-03-06T12:58:31.358Z,0.80
2023-03-06T13:01:13.581Z,1.02
2023-03-06T13:03:46.889Z,0.75
2023-03-06T13:06:54.161Z,0.70
2023-03-06T13:09:27.138Z,0.75
2023-03-06T13:11:57.468Z,0.70
2023-03-06T13:14:34.312Z,0.60
2023-03-06T13:17:21.272Z,0.60
2023-03-06T13:19:48.816Z,0.70
2023-03-06T13:22:27.756Z,0.70
2023-03-06T13:25:24.569Z,0.90
2023-03-06T13:27:54.434Z,0.60
2023-03-06T13:30:36.935Z,0.70
2023-03-06T13:33:25.673Z,0.80
2023-03-06T13:35:54.291Z,0.80
2023-03-06T13:38:30.313Z,0.70
2023-03-06T13:41:26.621Z,0.75
2023-03-06T13:43:57.811Z,1.00
2023-03-06T13:46:36.060Z,0.70
2023-03-06T13:49:09.370Z,0.70
2023-03-06T13:51:36.451Z,1.10
2023-03-06T13:54:22.307Z,0.88
2023-03-06T13:56:58.337Z,0.85
2023-03-06T13:59:28.217Z,0.80
2023-03-06T14:01:55.491Z,1.00
2023-03-06T14:04:32.540Z,1.00
2023-03-06T14:06:59.707Z,1.25
2023-03-06T14:09:28.738Z,1.15
2023-03-06T14:11:59.097Z,0.90
2023-03-06T14:14:33.229Z,0.80
2023-03-06T14:17:01.416Z,0.90
2023-03-06T14:19:31.825Z,1.25
2023-03-06T14:21:59.026Z,1.00
2023-03-06T14:24:46.001Z,0.93
2023-03-06T14:27:19.712Z,0.90
2023-03-06T14:30:07.402Z,1.05
2023-03-06T14:32:38.570Z,1.13
2023-03-06T14:35:06.215Z,0.77
2023-03-06T14:37:35.394Z,0.80
2023-03-06T14:40:03.234Z,1.20
2023-03-06T14:42:30.612Z,1.10
2023-03-06T14:45:16.106Z,0.88
2023-03-06T14:47:43.898Z,0.90
2023-03-06T14:50:25.035Z,0.80
2023-03-06T14:52:57.625Z,0.70
2023-03-06T14:55:26.376Z,0.57
2023-03-06T14:57:58.696Z,0.77
2023-03-06T15:00:30.922Z,0.80
2023-03-06T15:02:58.466Z,0.82
2023-03-06T15:05:29.574Z,0.73
2023-03-06T15:08:03.101Z,0.60
2023-03-06T15:10:32.173Z,0.82
2023-03-06T15:13:19.733Z,0.63
2023-03-06T15:15:55.548Z,0.70
2023-03-06T15:18:43.707Z,0.70
2023-03-06T15:21:20.698Z,0.63
2023-03-06T15:23:49.096Z,0.90
2023-03-06T15:26:19.278Z,0.55
2023-03-06T15:28:47.618Z,1.13
2023-03-06T15:31:45.239Z,0.93
2023-03-06T15:34:12.416Z,0.80
2023-03-06T15:36:40.610Z,0.95
2023-03-06T15:39:26.309Z,0.95
2023-03-06T15:41:57.909Z,1.08
2023-03-06T15:44:25.230Z,0.90
2023-03-06T15:46:59.279Z,0.90
2023-03-06T15:49:33.879Z,1.00
2023-03-06T15:52:00.970Z,0.90
2023-03-06T15:54:28.105Z,1.00
2023-03-06T15:56:55.316Z,1.00
2023-03-06T15:59:26.745Z,0.90
2023-03-06T16:01:54.632Z,1.05
2023-03-06T16:04:21.946Z,0.82
2023-03-06T16:06:50.227Z,0.93
2023-03-06T16:09:17.380Z,0.98
2023-03-06T16:11:45.466Z,1.00
2023-03-06T16:14:21.022Z,1.08
2023-03-06T16:16:49.266Z,1.08
2023-03-06T16:19:25.913Z,1.13
2023-03-06T16:21:54.336Z,1.30
2023-03-06T16:24:21.752Z,0.88
2023-03-06T16:26:52.901Z,0.70
2023-03-06T16:29:21.545Z,0.90
2023-03-06T16:31:48.896Z,1.25
2023-03-06T16:34:17.050Z,0.80
2023-03-06T16:36:44.237Z,1.13
2023-03-06T16:39:14.782Z,1.00
2023-03-06T16:41:41.959Z,1.10
2023-03-06T16:44:10.409Z,0.93
2023-03-06T16:46:42.234Z,1.30
2023-03-06T16:49:14.101Z,1.23
2023-03-06T16:51:43.501Z,1.00
2023-03-06T16:54:10.670Z,1.10
2023-03-06T16:56:38.134Z,0.82
2023-03-06T16:59:05.289Z,0.98
2023-03-06T17:01:32.474Z,1.05
2023-03-06T17:03:59.896Z,1.08
2023-03-06T17:06:27.101Z,1.10
2023-03-06T17:08:54.216Z,1.02
2023-03-06T17:11:21.433Z,1.00
2023-03-06T17:13:48.897Z,1.00
2023-03-06T17:16:16.506Z,0.90
2023-03-06T17:18:44.491Z,1.13
2023-03-06T17:21:12.080Z,1.30
2023-03-06T17:23:39.347Z,2.05
2023-03-06T17:26:08.388Z,2.10
2023-03-06T17:28:36.254Z,4.05
2023-03-06T17:31:05.330Z,4.60
2023-03-06T17:33:32.496Z,4.60
2023-03-06T17:36:00.800Z,5.80
2023-03-06T17:38:28.165Z,5.18
2023-03-06T17:40:55.306Z,5.50
2023-03-06T17:43:22.628Z,5.70
2023-03-06T17:45:49.863Z,6.85
2023-03-06T17:48:17.119Z,6.35
2023-03-06T17:50:45.760Z,7.05
2023-03-06T17:53:12.956Z,6.60
2023-03-06T17:55:40.444Z,7.65
2023-03-06T17:58:07.606Z,6.82
2023-03-06T18:00:36.015Z,7.70
2023-03-06T18:03:03.202Z,6.68
2023-03-06T18:05:30.334Z,7.40
2023-03-06T18:07:57.593Z,7.18
2023-03-06T18:10:24.962Z,7.25
2023-03-06T18:12:52.147Z,7.47
2023-03-06T18:15:19.351Z,7.32
2023-03-06T18:17:46.684Z,8.30
2023-03-06T18:20:13.815Z,6.95
2023-03-06T18:22:41.141Z,7.63
2023-03-06T18:25:08.481Z,8.02
2023-03-06T18:27:35.828Z,8.73
2023-03-06T18:30:02.925Z,8.13
2023-03-06T18:32:30.053Z,8.27
2023-03-06T18:34:57.324Z,8.73
2023-03-06T18:37:24.629Z,8.73
2023-03-06T18:39:51.756Z,9.20
2023-03-06T18:42:19.285Z,9.55
2023-03-06T18:44:48.004Z,7.70
2023-03-06T18:47:15.542Z,9.00
2023-03-06T18:49:44.835Z,8.50
2023-03-06T18:52:12.827Z,9.05
2023-03-06T18:54:40.110Z,9.60
2023-03-06T18:57:07.308Z,8.60
2023-03-06T18:59:35.340Z,10.07
2023-03-06T19:02:03.016Z,9.18
2023-03-06T19:04:30.134Z,10.38
2023-03-06T19:06:57.501Z,9.93
2023-03-06T19:09:24.619Z,10.75
2023-03-06T19:11:53.724Z,11.50
2023-03-06T19:14:21.962Z,13.48
2023-03-06T19:16:49.215Z,14.18
2023-03-06T19:19:16.362Z,15.02
2023-03-06T19:21:43.525Z,14.70
2023-03-06T19:24:13.958Z,12.98
2023-03-06T19:26:42.012Z,13.95
2023-03-06T19:29:09.314Z,13.60
2023-03-06T19:31:36.481Z,13.13
2023-03-06T19:34:03.654Z,14.52
2023-03-06T19:36:33.924Z,15.50
2023-03-06T19:39:02.296Z,15.52
2023-03-06T19:41:29.832Z,15.85
2023-03-06T19:43:58.775Z,16.95
2023-03-06T19:46:26.416Z,15.07
2023-03-06T19:48:57.191Z,17.00
2023-03-06T19:51:24.769Z,17.27
2023-03-06T19:53:51.955Z,16.05
2023-03-06T19:56:21.041Z,16.45
2023-03-06T19:58:48.295Z,15.68
2023-03-06T20:01:16.958Z,17.23
2023-03-06T20:03:44.470Z,17.80
2023-03-06T20:06:15.474Z,19.80
2023-03-06T20:08:45.385Z,21.30
2023-03-06T20:11:16.775Z,19.08
2023-03-06T20:13:47.452Z,20.20
2023-03-06T20:16:15.195Z,20.70
2023-03-06T20:18:42.517Z,21.58
2023-03-06T20:21:09.661Z,20.75
2023-03-06T20:23:37.936Z,21.83
2023-03-06T20:26:06.234Z,21.63
2023-03-06T20:28:35.012Z,22.02
2023-03-06T20:31:08.490Z,22.15
2023-03-06T20:33:35.685Z,23.75
2023-03-06T20:36:02.930Z,24.38
2023-03-06T20:38:30.096Z,24.55
2023-03-06T20:40:58.322Z,26.08
2023-03-06T20:43:25.491Z,25.05
2023-03-06T20:45:59.686Z,24.55
2023-03-06T20:48:26.946Z,27.08
2023-03-06T20:51:04.250Z,27.55
2023-03-06T20:53:31.526Z,28.35
2023-03-06T20:55:58.635Z,28.52
2023-03-06T20:58:28.551Z,30.35
2023-03-06T21:00:55.738Z,30.20
2023-03-06T21:03:22.949Z,29.05
2023-03-06T21:05:50.532Z,29.00
2023-03-06T21:08:17.648Z,29.83
2023-03-06T21:10:46.685Z,29.40
2023-03-06T21:13:14.231Z,29.73
2023-03-06T21:15:42.311Z,27.33
2023-03-06T21:18:09.997Z,29.42
2023-03-06T21:20:40.820Z,27.48
2023-03-06T21:23:08.899Z,28.65
2023-03-06T21:25:36.100Z,27.85
2023-03-06T21:28:03.398Z,28.15
2023-03-06T21:30:30.767Z,29.02
2023-03-06T21:32:57.917Z,30.02
2023-03-06T21:35:25.135Z,28.60
2023-03-06T21:37:54.594Z,28.23
2023-03-06T21:40:21.800Z,26.98
2023-03-06T21:42:49.290Z,26.95
2023-03-06T21:45:16.481Z,27.10
2023-03-06T21:47:43.611Z,28.65
2023-03-06T21:50:11.748Z,26.95
2023-03-06T21:52:38.912Z,24.95
2023-03-06T21:55:06.840Z,27.63
2023-03-06T21:57:33.969Z,26.67
2023-03-06T22:00:01.547Z,27.10
2023-03-06T22:02:38.377Z,26.33
2023-03-06T22:05:06.183Z,26.02
2023-03-06T22:07:36.848Z,23.80
2023-03-06T22:10:04.452Z,23.00
2023-03-06T22:12:31.677Z,25.45
2023-03-06T22:14:59.065Z,25.02
2023-03-06T22:17:26.350Z,25.00
2023-03-06T22:19:53.458Z,23.83
2023-03-06T22:22:20.641Z,23.65
2023-03-06T22:24:48.438Z,22.48
2023-03-06T22:27:15.881Z,22.95
2023-03-06T22:29:43.176Z,23.25
2023-03-06T22:32:10.500Z,22.70
2023-03-06T22:34:40.171Z,22.92
2023-03-06T22:37:07.248Z,22.23
2023-03-06T22:39:34.349Z,23.30
2023-03-06T22:42:01.457Z,21.73
2023-03-06T22:44:28.593Z,19.98
2023-03-06T22:46:55.924Z,21.25
2023-03-06T22:49:23.053Z,19.20
2023-03-06T22:51:50.183Z,19.38
2023-03-06T22:54:17.266Z,19.45
2023-03-06T22:56:44.447Z,20.00
2023-03-06T22:59:13.937Z,20.13
2023-03-06T23:01:41.824Z,20.40
2023-03-06T23:04:11.302Z,19.52
2023-03-06T23:06:39.839Z,18.90
2023-03-06T23:09:13.061Z,19.05
2023-03-06T23:11:59.409Z,16.83
2023-03-06T23:14:49.394Z,20.13
2023-03-06T23:17:35.144Z,18.08
2023-03-06T23:20:21.491Z,17.85
2023-03-06T23:23:07.405Z,17.02
2023-03-06T23:25:44.172Z,18.23
2023-03-06T23:28:12.049Z,19.45
2023-03-06T23:30:42.735Z,17.58
2023-03-06T23:33:10.303Z,16.27
2023-03-06T23:35:39.095Z,19.45
2023-03-06T23:38:08.810Z,18.98
2023-03-06T23:40:37.547Z,17.65
2023-03-06T23:43:04.856Z,18.85
2023-03-06T23:45:32.147Z,17.02
2023-03-06T23:47:59.239Z,18.20
2023-03-06T23:50:26.424Z,17.75
2023-03-06T23:52:54.342Z,18.00
2023-03-06T23:55:21.937Z,18.35
2023-03-06T23:57:49.068Z,18.83
